Time;durP1;ratioP1;P1;durP2;ratioP2;P2;SDS_P1;SDS_P2;PMS_P1;PMS_P2;Temp;Humidity;BMP_temperature;BMP_pressure;BME280_temperature;BME280_humidity;BME280_pressure;Samples;Min_cycle;Max_cycle;Signal;HPM_P1;HPM_P2
2021/09/08 00:01:49;;;;;;;5.15;1.38;;;18.80;61.80;;;;;;5114070;28;20028;-66
2021/09/08 00:04:17;;;;;;;3.40;1.50;;;18.80;62.70;;;;;;5113847;28;20022;-67
2021/09/08 00:06:44;;;;;;;2.97;1.63;;;18.80;62.10;;;;;;5111952;28;20023;-67
2021/09/08 00:09:11;;;;;;;2.30;1.20;;;18.90;61.80;;;;;;5111334;28;20508;-70
2021/09/08 00:11:39;;;;;;;3.60;1.80;;;18.90;62.60;;;;;;5113104;28;20023;-65
2021/09/08 00:14:06;;;;;;;2.72;1.40;;;19.00;62.70;;;;;;5112500;28;20035;-71
2021/09/08 00:16:34;;;;;;;2.35;1.20;;;19.00;60.90;;;;;;5115426;28;20051;-64
2021/09/08 00:19:01;;;;;;;2.58;1.30;;;19.00;63.00;;;;;;5113532;28;20563;-75
2021/09/08 00:21:29;;;;;;;5.00;1.52;;;19.00;62.50;;;;;;5110960;28;20027;-61
2021/09/08 00:23:56;;;;;;;2.72;1.30;;;19.10;61.90;;;;;;5109831;28;20498;-68
2021/09/08 00:26:24;;;;;;;6.43;1.83;;;19.10;62.60;;;;;;5112551;28;20335;-67
2021/09/08 00:28:52;;;;;;;3.50;1.40;;;19.10;61.70;;;;;;5111586;28;20106;-75
2021/09/08 00:31:19;;;;;;;2.75;1.30;;;19.10;62.50;;;;;;5111878;28;20035;-72
2021/09/08 00:33:47;;;;;;;2.38;1.20;;;19.20;62.50;;;;;;5115423;28;20087;-65
2021/09/08 00:36:14;;;;;;;3.10;1.33;;;19.20;62.40;;;;;;5114212;28;20040;-65
2021/09/08 00:38:42;;;;;;;5.53;2.00;;;19.30;62.20;;;;;;5112241;28;20031;-62
2021/09/08 00:41:09;;;;;;;8.77;1.88;;;19.40;61.50;;;;;;5096786;28;20028;-60
2021/09/08 00:43:37;;;;;;;4.85;1.77;;;19.60;59.80;;;;;;5104030;28;20043;-53
2021/09/08 00:46:04;;;;;;;9.57;2.95;;;19.70;60.40;;;;;;5100053;28;20367;-56
2021/09/08 00:48:32;;;;;;;4.57;1.60;;;19.80;59.00;;;;;;5083026;28;20052;-62
2021/09/08 00:51:14;;;;;;;8.05;1.70;;;20.00;58.30;;;;;;5086624;28;20035;-61
2021/09/08 00:53:43;;;;;;;2.38;0.93;;;20.00;59.50;;;;;;5106162;28;20031;-70
2021/09/08 00:56:12;;;;;;;6.22;1.90;;;19.90;60.10;;;;;;5100402;28;20026;-62
2021/09/08 00:58:40;;;;;;;10.90;2.42;;;20.00;59.40;;;;;;5105978;28;20028;-61
2021/09/08 01:01:07;;;;;;;5.53;1.80;;;20.00;59.60;;;;;;5105665;28;20100;-58
2021/09/08 01:03:35;;;;;;;5.55;1.98;;;20.10;59.60;;;;;;5107124;28;20051;-57
2021/09/08 01:06:02;;;;;;;8.38;1.77;;;20.20;59.20;;;;;;5100431;28;20015;-63
2021/09/08 01:08:29;;;;;;;5.55;1.55;;;20.30;58.80;;;;;;5107472;28;20100;-60
2021/09/08 01:10:57;;;;;;;4.75;1.73;;;20.30;58.10;;;;;;5085335;28;20120;-59
2021/09/08 01:13:27;;;;;;;6.13;2.00;;;20.50;58.50;;;;;;5107387;28;20111;-61
2021/09/08 01:16:01;;;;;;;13.60;1.90;;;20.60;58.60;;;;;;5099299;28;20019;-56
2021/09/08 01:18:32;;;;;;;8.63;1.95;;;20.50;58.20;;;;;;5088880;28;20042;-70
2021/09/08 01:21:00;;;;;;;9.73;2.65;;;20.60;58.20;;;;;;5103749;28;20019;-59
2021/09/08 01:23:27;;;;;;;8.40;2.35;;;20.60;58.40;;;;;;5104642;28;20032;-56
2021/09/08 01:25:55;;;;;;;5.28;1.83;;;20.50;58.90;;;;;;5099272;28;20076;-68
2021/09/08 01:28:22;;;;;;;8.23;1.88;;;20.60;58.90;;;;;;5083776;28;20355;-62
2021/09/08 01:30:58;;;;;;;11.55;2.58;;;20.70;58.80;;;;;;5083824;28;20035;-62
2021/09/08 01:33:25;;;;;;;6.82;1.73;;;20.80;58.00;;;;;;5108050;28;20077;-71
2021/09/08 01:35:53;;;;;;;6.53;1.63;;;20.50;59.10;;;;;;5101596;28;20028;-72
2021/09/08 01:38:21;;;;;;;8.48;1.88;;;20.30;59.30;;;;;;5072535;28;20027;-73
2021/09/08 01:40:49;;;;;;;7.88;1.95;;;20.20;60.40;;;;;;5106509;28;20023;-73
2021/09/08 01:43:21;;;;;;;6.93;2.17;;;20.30;60.50;;;;;;5107816;28;20409;-72
2021/09/08 01:45:48;;;;;;;10.20;2.17;;;20.20;60.50;;;;;;5099189;28;20027;-67
2021/09/08 01:48:16;;;;;;;5.32;1.73;;;20.40;59.90;;;;;;5105523;28;20032;-69
2021/09/08 01:50:43;;;;;;;10.65;2.28;;;20.40;59.60;;;;;;5102771;28;20039;-68
2021/09/08 01:53:12;;;;;;;5.47;1.85;;;20.50;59.30;;;;;;5106624;28;20024;-64
2021/09/08 01:55:40;;;;;;;6.90;1.75;;;20.50;59.80;;;;;;5099741;28;20020;-66
2021/09/08 01:58:07;;;;;;;5.70;1.85;;;20.70;59.00;;;;;;5110370;28;20062;-69
2021/09/08 02:00:35;;;;;;;6.50;1.90;;;20.70;59.20;;;;;;5089434;28;20035;-72
2021/09/08 02:03:02;;;;;;;10.05;1.60;;;20.80;59.10;;;;;;5111102;28;20020;-71
2021/09/08 02:05:30;;;;;;;10.45;1.70;;;20.90;58.50;;;;;;5104631;28;20043;-62
2021/09/08 02:07:57;;;;;;;9.35;1.70;;;20.90;58.40;;;;;;5111474;28;20033;-67
2021/09/08 02:10:28;;;;;;;5.38;1.73;;;20.90;58.60;;;;;;5105823;27;20065;-63
2021/09/08 02:12:55;;;;;;;8.07;1.98;;;21.00;57.90;;;;;;5107389;28;20032;-61
2021/09/08 02:15:30;;;;;;;5.53;1.70;;;21.10;57.90;;;;;;5100708;28;20028;-59
2021/09/08 02:17:57;;;;;;;7.95;2.10;;;21.20;58.20;;;;;;5110889;28;20028;-67
2021/09/08 02:20:25;;;;;;;5.53;1.70;;;21.20;57.20;;;;;;5100273;28;20023;-67
2021/09/08 02:22:52;;;;;;;7.40;2.45;;;21.30;57.10;;;;;;5075041;28;20050;-65
2021/09/08 02:25:19;;;;;;;9.30;2.15;;;21.40;55.90;;;;;;5102294;27;20039;-66
2021/09/08 02:27:47;;;;;;;10.32;1.80;;;21.40;57.30;;;;;;5110190;28;20076;-68
2021/09/08 02:30:14;;;;;;;5.55;1.85;;;21.40;57.40;;;;;;5108989;28;20115;-68
2021/09/08 02:32:42;;;;;;;4.90;1.58;;;21.40;56.70;;;;;;5107574;28;20084;-69
2021/09/08 02:35:10;;;;;;;7.47;2.03;;;21.40;56.80;;;;;;5104735;28;20016;-66
2021/09/08 02:37:38;;;;;;;10.93;1.98;;;21.50;56.50;;;;;;5110036;28;20063;-72
2021/09/08 02:40:06;;;;;;;5.90;1.65;;;21.60;55.70;;;;;;5106326;28;20020;-67
2021/09/08 02:42:34;;;;;;;6.53;1.92;;;21.50;56.90;;;;;;5103644;28;20044;-68
2021/09/08 02:45:02;;;;;;;4.50;1.90;;;21.70;55.40;;;;;;5101370;28;20081;-59
2021/09/08 02:47:29;;;;;;;4.72;1.40;;;21.70;56.20;;;;;;5091703;28;20028;-62
2021/09/08 02:50:04;;;;;;;6.75;1.83;;;21.70;56.60;;;;;;5107159;28;20038;-71
2021/09/08 02:52:31;;;;;;;7.03;1.70;;;21.90;56.40;;;;;;5107950;28;20032;-66
2021/09/08 02:54:58;;;;;;;3.75;2.20;;;21.70;56.50;;;;;;5085132;28;20012;-66
2021/09/08 02:57:29;;;;;;;7.80;1.83;;;21.80;55.80;;;;;;5110079;28;20031;-69
2021/09/08 02:59:56;;;;;;;5.50;1.67;;;21.90;55.50;;;;;;5108811;28;20015;-63
2021/09/08 03:02:23;;;;;;;5.78;1.77;;;21.90;56.30;;;;;;5107849;28;20176;-65
2021/09/08 03:04:51;;;;;;;5.75;1.73;;;22.00;55.80;;;;;;5101190;28;20039;-61
2021/09/08 03:07:18;;;;;;;5.07;1.95;;;21.90;55.90;;;;;;5105407;27;20015;-67
2021/09/08 03:09:46;;;;;;;7.05;2.53;;;22.00;56.10;;;;;;5106378;28;20036;-65
2021/09/08 03:12:14;;;;;;;4.88;1.73;;;22.00;56.00;;;;;;5111318;28;20024;-70
2021/09/08 03:14:41;;;;;;;5.55;1.88;;;22.00;55.70;;;;;;5110964;28;20020;-69
2021/09/08 03:17:09;;;;;;;5.75;2.70;;;21.90;56.00;;;;;;5091489;28;20035;-69
2021/09/08 03:19:50;;;;;;;10.23;2.17;;;22.00;55.60;;;;;;5110148;28;20073;-69
2021/09/08 03:22:17;;;;;;;6.70;2.28;;;21.90;56.30;;;;;;5092666;28;20027;-63
2021/09/08 03:24:45;;;;;;;8.30;3.83;;;21.80;56.50;;;;;;5099333;28;20035;-70
2021/09/08 03:27:12;;;;;;;24.60;8.25;;;21.90;56.70;;;;;;5103361;28;20089;-61
2021/09/08 03:29:40;;;;;;;43.83;18.20;;;21.90;56.90;;;;;;5108829;28;20027;-63
2021/09/08 03:32:08;;;;;;;45.88;19.48;;;21.80;57.20;;;;;;5108924;28;20603;-65
2021/09/08 03:34:35;;;;;;;46.92;21.42;;;21.80;57.50;;;;;;5085841;28;20027;-70
2021/09/08 03:37:03;;;;;;;46.13;21.45;;;21.90;57.70;;;;;;5102897;28;20041;-71
2021/09/08 03:39:30;;;;;;;34.50;16.00;;;21.90;57.50;;;;;;5104598;28;20124;-69
2021/09/08 03:41:58;;;;;;;47.33;20.92;;;22.00;57.70;;;;;;5108650;28;20039;-64
2021/09/08 03:44:25;;;;;;;58.95;22.63;;;21.90;57.80;;;;;;5104838;28;20040;-63
2021/09/08 03:46:52;;;;;;;47.47;23.25;;;21.90;58.10;;;;;;5105122;28;20043;-67
2021/09/08 03:49:20;;;;;;;53.22;24.70;;;21.80;58.00;;;;;;5102194;28;20047;-66
2021/09/08 03:51:47;;;;;;;44.25;20.30;;;21.80;58.30;;;;;;5108205;28;20024;-62
2021/09/08 03:54:15;;;;;;;38.42;19.55;;;21.90;58.70;;;;;;5095809;28;20107;-66
2021/09/08 03:56:42;;;;;;;43.42;20.30;;;21.90;59.20;;;;;;5090326;28;20023;-66
2021/09/08 03:59:09;;;;;;;41.53;18.13;;;21.80;58.60;;;;;;5077719;28;20093;-65
2021/09/08 04:01:37;;;;;;;49.90;23.17;;;21.90;58.90;;;;;;5105024;28;20039;-68
2021/09/08 04:04:04;;;;;;;54.05;22.65;;;21.80;58.70;;;;;;5101528;28;20057;-64
2021/09/08 04:06:32;;;;;;;41.75;21.38;;;21.60;59.00;;;;;;5106458;28;20107;-67
2021/09/08 04:08:59;;;;;;;40.33;19.98;;;21.80;59.10;;;;;;5112213;28;20402;-76
2021/09/08 04:11:27;;;;;;;40.33;16.40;;;21.70;59.10;;;;;;5111074;28;20059;-70
2021/09/08 04:13:54;;;;;;;42.58;19.02;;;21.90;59.40;;;;;;5110648;28;20077;-68
2021/09/08 04:16:34;;;;;;;38.38;17.70;;;21.80;59.10;;;;;;5111933;28;20034;-63
2021/09/08 04:19:02;;;;;;;30.90;14.25;;;21.70;59.40;;;;;;5112025;28;20027;-72
2021/09/08 04:21:30;;;;;;;33.10;14.95;;;21.70;59.30;;;;;;5111502;28;20106;-69
2021/09/08 04:23:57;;;;;;;42.63;15.65;;;21.70;59.40;;;;;;5091807;28;20027;-66
2021/09/08 04:26:25;;;;;;;27.92;12.60;;;21.70;59.60;;;;;;5111359;28;20036;-64
2021/09/08 04:28:52;;;;;;;39.95;18.35;;;21.70;59.70;;;;;;5110967;28;20558;-70
2021/09/08 04:31:19;;;;;;;29.13;13.57;;;21.60;59.90;;;;;;5110294;28;20036;-65
2021/09/08 04:33:47;;;;;;;32.58;12.77;;;21.60;59.90;;;;;;5109251;28;20075;-75
2021/09/08 04:36:14;;;;;;;29.75;13.88;;;21.60;60.20;;;;;;5109511;28;20031;-63
2021/09/08 04:38:45;;;;;;;29.95;14.15;;;21.60;60.10;;;;;;5109463;28;20020;-71
2021/09/08 04:41:15;;;;;;;31.40;13.65;;;21.60;60.20;;;;;;5109663;28;20030;-57
2021/09/08 04:43:44;;;;;;;25.75;11.95;;;21.60;60.00;;;;;;5110181;28;20019;-66
2021/09/08 04:46:11;;;;;;;28.70;11.43;;;21.60;60.80;;;;;;5110792;28;20036;-72
2021/09/08 04:48:38;;;;;;;27.70;12.73;;;21.70;60.10;;;;;;5108732;28;20023;-69
2021/09/08 04:51:06;;;;;;;29.58;12.52;;;21.70;59.90;;;;;;5109774;28;20485;-71
2021/09/08 04:53:33;;;;;;;26.88;12.85;;;21.80;60.10;;;;;;5109383;28;20123;-61
2021/09/08 04:56:01;;;;;;;24.58;12.18;;;21.70;60.10;;;;;;5109941;28;20671;-72
2021/09/08 04:58:28;;;;;;;28.50;13.88;;;21.70;60.10;;;;;;5113134;28;20027;-73
2021/09/08 05:00:55;;;;;;;23.70;12.73;;;21.70;60.10;;;;;;5110956;28;20020;-70
2021/09/08 05:03:23;;;;;;;27.45;13.00;;;21.70;60.20;;;;;;5108653;28;20343;-65
2021/09/08 05:05:50;;;;;;;26.00;11.57;;;21.60;60.20;;;;;;5098366;28;20024;-67
2021/09/08 05:08:18;;;;;;;21.40;9.75;;;21.70;60.20;;;;;;5079628;28;21206;-66
2021/09/08 05:10:45;;;;;;;29.05;11.68;;;21.70;60.10;;;;;;5105268;28;20036;-67
2021/09/08 05:13:12;;;;;;;24.98;10.90;;;21.60;60.10;;;;;;5106714;28;20050;-65
2021/09/08 05:15:40;;;;;;;26.20;10.55;;;21.60;60.50;;;;;;5106280;28;20047;-60
2021/09/08 05:18:07;;;;;;;25.27;11.38;;;21.60;60.50;;;;;;5095390;28;20173;-62
2021/09/08 05:20:35;;;;;;;25.58;10.88;;;21.60;60.60;;;;;;5107172;28;20051;-69
2021/09/08 05:23:03;;;;;;;24.90;10.93;;;21.60;60.70;;;;;;5106005;28;20079;-68
2021/09/08 05:25:30;;;;;;;24.02;9.88;;;21.60;60.90;;;;;;5106637;28;20051;-64
2021/09/08 05:27:58;;;;;;;26.42;11.65;;;21.60;60.90;;;;;;5099718;28;20080;-67
2021/09/08 05:30:25;;;;;;;21.92;10.45;;;21.60;60.70;;;;;;5089222;28;20093;-65
2021/09/08 05:32:55;;;;;;;21.55;11.23;;;21.60;60.70;;;;;;5111009;28;20494;-67
2021/09/08 05:35:23;;;;;;;25.77;12.30;;;21.70;60.70;;;;;;5113476;28;20038;-77
2021/09/08 05:37:50;;;;;;;22.42;11.45;;;21.70;60.80;;;;;;5113142;28;20066;-70
2021/09/08 05:40:18;;;;;;;22.20;10.10;;;21.70;60.80;;;;;;5109026;28;20020;-66
2021/09/08 05:42:45;;;;;;;18.60;9.55;;;21.80;60.40;;;;;;5059593;28;20067;-72
2021/09/08 05:45:12;;;;;;;23.30;10.82;;;21.80;60.30;;;;;;5074967;28;20020;-69
2021/09/08 05:47:40;;;;;;;20.02;9.55;;;21.80;60.50;;;;;;5076747;28;20020;-67
2021/09/08 05:50:08;;;;;;;18.50;9.80;;;21.70;60.60;;;;;;5093215;28;20032;-68
2021/09/08 05:52:35;;;;;;;24.20;10.73;;;21.80;60.70;;;;;;5095174;28;20066;-73
2021/09/08 05:55:03;;;;;;;17.88;6.15;;;21.80;60.50;;;;;;5094140;28;20151;-61
2021/09/08 05:57:30;;;;;;;19.70;6.75;;;21.90;60.30;;;;;;5094115;28;20032;-62
2021/09/08 05:59:58;;;;;;;20.67;8.98;;;22.00;60.30;;;;;;5094304;28;20024;-62
2021/09/08 06:02:25;;;;;;;18.98;8.00;;;22.00;60.20;;;;;;5112030;28;20020;-59
2021/09/08 06:04:52;;;;;;;9.57;4.60;;;22.00;60.30;;;;;;5111646;28;20030;-59
2021/09/08 06:07:20;;;;;;;13.88;5.90;;;21.90;60.10;;;;;;5111776;28;20054;-60
2021/09/08 06:09:47;;;;;;;16.05;6.60;;;21.90;60.50;;;;;;5092987;28;20122;-59
2021/09/08 06:12:15;;;;;;;10.57;4.57;;;22.00;60.60;;;;;;5112039;28;20157;-59
2021/09/08 06:14:42;;;;;;;19.73;6.72;;;22.00;60.50;;;;;;5093760;28;20035;-60
2021/09/08 06:17:10;;;;;;;18.70;7.20;;;22.00;60.60;;;;;;5112518;28;20042;-63
2021/09/08 06:19:37;;;;;;;18.38;6.40;;;21.60;61.40;;;;;;5094513;28;20434;-65
2021/09/08 06:22:05;;;;;;;15.95;6.28;;;21.40;62.20;;;;;;5112776;28;20062;-71
2021/09/08 06:24:33;;;;;;;19.33;6.32;;;21.40;62.90;;;;;;5111819;28;20134;-71
2021/09/08 06:27:00;;;;;;;10.98;5.57;;;21.30;63.00;;;;;;5096003;28;20177;-69
2021/09/08 06:29:28;;;;;;;15.13;5.47;;;21.30;62.90;;;;;;5116467;28;20027;-73
2021/09/08 06:31:55;;;;;;;15.00;5.22;;;21.30;63.00;;;;;;5113736;28;20481;-68
2021/09/08 06:34:47;;;;;;;;;;;;;;;;;;;;;
2021/09/08 06:37:14;;;;;;;;;;;21.30;63.20;;;;;;5113600;28;20018;-72
2021/09/08 06:39:42;;;;;;;13.43;5.90;;;21.30;63.20;;;;;;5114634;28;19908;-73
2021/09/08 06:42:12;;;;;;;14.43;5.70;;;21.30;63.90;;;;;;5115977;28;20058;-66
2021/09/08 06:44:40;;;;;;;12.80;6.05;;;21.20;64.00;;;;;;5113364;28;20031;-68
2021/09/08 06:47:07;;;;;;;16.08;7.22;;;21.20;63.40;;;;;;5110767;28;20031;-63
2021/09/08 06:49:35;;;;;;;15.43;8.20;;;21.20;63.70;;;;;;5111303;28;20034;-68
2021/09/08 06:52:02;;;;;;;14.55;8.07;;;21.10;63.80;;;;;;5093879;28;20114;-69
2021/09/08 06:54:30;;;;;;;13.43;8.63;;;21.10;63.90;;;;;;5112102;28;20027;-67
2021/09/08 06:56:57;;;;;;;16.45;7.95;;;21.10;64.00;;;;;;5112550;28;20015;-69
2021/09/08 06:59:24;;;;;;;12.90;6.90;;;21.00;64.20;;;;;;5111503;28;20027;-67
2021/09/08 07:01:52;;;;;;;14.18;7.57;;;21.00;64.30;;;;;;5111282;28;20057;-68
2021/09/08 07:04:19;;;;;;;16.85;10.10;;;21.00;64.40;;;;;;5111124;28;20031;-66
2021/09/08 07:06:46;;;;;;;12.90;7.15;;;21.00;64.50;;;;;;5092903;28;20034;-67
2021/09/08 07:09:17;;;;;;;16.58;8.60;;;21.00;64.90;;;;;;5110821;28;20122;-65
2021/09/08 07:11:45;;;;;;;12.38;7.95;;;21.00;64.70;;;;;;5110981;28;20035;-66
2021/09/08 07:14:12;;;;;;;16.10;7.95;;;20.90;65.10;;;;;;5111513;28;20066;-68
2021/09/08 07:16:39;;;;;;;14.35;8.07;;;20.90;65.10;;;;;;5111418;28;20665;-68
2021/09/08 07:19:07;;;;;;;16.40;9.52;;;20.90;65.50;;;;;;5111663;28;20024;-66
2021/09/08 07:21:34;;;;;;;16.38;9.45;;;20.80;65.00;;;;;;5111677;28;20077;-64
2021/09/08 07:24:03;;;;;;;12.82;7.72;;;20.70;65.60;;;;;;5112551;28;20046;-66
2021/09/08 07:26:35;;;;;;;16.10;8.77;;;20.70;66.90;;;;;;5112589;28;20024;-69
2021/09/08 07:29:04;;;;;;;14.60;8.48;;;20.60;66.40;;;;;;5111885;28;20031;-67
2021/09/08 07:31:31;;;;;;;12.98;7.63;;;20.60;66.70;;;;;;5111325;28;20066;-68
2021/09/08 07:33:59;;;;;;;17.33;7.50;;;20.50;67.30;;;;;;5114968;28;20043;-72
2021/09/08 07:36:39;;;;;;;16.00;9.32;;;20.40;67.60;;;;;;5119488;28;20031;-68
2021/09/08 07:39:07;;;;;;;15.60;9.50;;;20.40;67.90;;;;;;5117615;28;20046;-65
2021/09/08 07:41:34;;;;;;;13.00;8.90;;;20.30;68.20;;;;;;5118669;28;20114;-71
2021/09/08 07:44:02;;;;;;;20.48;7.97;;;20.30;68.50;;;;;;5120261;28;20032;-72
2021/09/08 07:46:29;;;;;;;11.52;7.38;;;20.20;68.70;;;;;;5119741;28;20485;-70
2021/09/08 07:48:57;;;;;;;12.75;7.47;;;20.10;68.90;;;;;;5119116;28;20030;-69
2021/09/08 07:51:24;;;;;;;11.27;6.80;;;20.10;69.80;;;;;;5118200;28;20429;-69
2021/09/08 07:53:52;;;;;;;10.23;6.57;;;20.00;69.60;;;;;;5117077;28;20080;-72
2021/09/08 07:56:23;;;;;;;11.02;5.85;;;20.00;69.60;;;;;;5097750;28;20020;-63
2021/09/08 07:58:50;;;;;;;12.75;5.90;;;20.00;70.20;;;;;;5114667;28;20390;-68
2021/09/08 08:01:38;;;;;;;14.73;7.00;;;20.00;70.10;;;;;;5114430;28;20474;-58
2021/09/08 08:04:41;;;;;;;11.60;6.03;;;19.90;70.20;;;;;;5064335;28;20031;-61
2021/09/08 08:07:11;;;;;;;10.60;5.70;;;19.80;70.30;;;;;;5116530;28;20020;-68
2021/09/08 08:09:43;;;;;;;10.95;5.40;;;19.80;70.50;;;;;;5114767;28;20024;-68
2021/09/08 08:12:13;;;;;;;11.13;6.85;;;19.70;70.70;;;;;;5114266;28;20061;-72
2021/09/08 08:14:40;;;;;;;9.10;5.85;;;19.70;70.60;;;;;;5114532;28;20024;-68
2021/09/08 08:17:08;;;;;;;10.68;6.15;;;19.70;70.90;;;;;;5086267;28;20300;-65
2021/09/08 08:19:35;;;;;;;8.80;5.50;;;19.60;71.00;;;;;;5105136;28;20023;-67
2021/09/08 08:22:03;;;;;;;11.75;6.07;;;19.60;71.40;;;;;;5109702;28;20024;-67
2021/09/08 08:24:31;;;;;;;13.85;7.30;;;19.50;71.50;;;;;;5094545;28;20050;-65
2021/09/08 08:27:00;;;;;;;11.88;6.30;;;19.50;71.60;;;;;;5112286;28;20028;-66
2021/09/08 08:29:28;;;;;;;12.68;6.20;;;19.50;71.70;;;;;;5110866;28;20043;-64
2021/09/08 08:31:56;;;;;;;12.50;6.25;;;19.40;71.80;;;;;;5108263;28;20059;-71
2021/09/08 08:34:23;;;;;;;11.55;6.32;;;19.40;72.00;;;;;;5112613;28;20020;-71
2021/09/08 08:36:54;;;;;;;11.57;6.80;;;19.30;72.40;;;;;;5112386;28;20069;-66
2021/09/08 08:39:22;;;;;;;10.00;6.38;;;19.30;72.50;;;;;;5109195;28;20081;-66
2021/09/08 08:41:49;;;;;;;11.35;5.90;;;19.30;72.60;;;;;;5105531;28;20069;-69
2021/09/08 08:44:25;;;;;;;16.30;7.60;;;19.30;72.90;;;;;;5112143;28;20038;-65
2021/09/08 08:46:54;;;;;;;14.73;6.97;;;19.30;72.70;;;;;;5106175;28;20031;-73
2021/09/08 08:49:21;;;;;;;15.23;8.52;;;19.30;72.60;;;;;;5109186;28;20410;-64
2021/09/08 08:51:49;;;;;;;16.33;7.80;;;19.20;72.90;;;;;;5087111;28;20027;-71
2021/09/08 08:54:18;;;;;;;13.95;7.82;;;19.20;72.90;;;;;;5088093;28;20016;-67
2021/09/08 08:56:45;;;;;;;14.65;7.53;;;19.20;73.10;;;;;;5107669;28;20051;-66
2021/09/08 08:59:13;;;;;;;16.15;7.45;;;19.20;73.10;;;;;;5103438;28;20470;-63
2021/09/08 09:01:41;;;;;;;17.55;7.80;;;19.20;73.10;;;;;;5099797;28;20106;-66
2021/09/08 09:04:11;;;;;;;17.98;7.75;;;19.20;73.30;;;;;;5108170;28;20027;-65
2021/09/08 09:06:41;;;;;;;15.75;8.07;;;19.10;73.30;;;;;;5108354;28;20027;-61
2021/09/08 09:09:41;;;;;;;;;;;;;;;;;;;;;
2021/09/08 09:12:03;;;;;;;20.10;8.02;;;19.10;74.00;;;;;;5084238;28;20455;-69
2021/09/08 09:14:31;;;;;;;16.13;7.47;;;19.10;73.60;;;;;;5111464;28;20019;-65
2021/09/08 09:17:18;;;;;;;15.15;7.25;;;19.10;73.90;;;;;;5106841;28;20390;-61
2021/09/08 09:19:51;;;;;;;18.38;8.30;;;19.10;73.90;;;;;;5098671;28;20019;-62
2021/09/08 09:22:38;;;;;;;15.57;7.43;;;19.00;74.10;;;;;;5093147;28;20087;-65
2021/09/08 09:25:08;;;;;;;16.92;7.43;;;19.00;73.90;;;;;;5109939;28;20054;-68
2021/09/08 09:27:38;;;;;;;13.65;7.60;;;19.00;74.30;;;;;;5110281;28;20106;-66
2021/09/08 09:30:25;;;;;;;19.45;7.25;;;19.00;74.30;;;;;;5104311;28;20032;-65
2021/09/08 09:32:55;;;;;;;17.70;7.40;;;18.90;74.20;;;;;;5092914;28;20047;-64
2021/09/08 09:35:29;;;;;;;12.07;6.38;;;18.90;74.40;;;;;;5110474;28;20034;-75
2021/09/08 09:37:59;;;;;;;16.55;6.80;;;18.90;74.50;;;;;;5095798;28;20088;-64
2021/09/08 09:40:36;;;;;;;13.43;7.30;;;18.90;74.60;;;;;;5113917;28;20016;-70
2021/09/08 09:43:08;;;;;;;14.25;7.18;;;18.80;74.50;;;;;;5113835;28;20039;-66
2021/09/08 09:45:38;;;;;;;14.98;7.22;;;18.80;74.70;;;;;;5101487;28;20449;-66
2021/09/08 09:48:08;;;;;;;18.35;6.65;;;18.80;74.90;;;;;;5106960;28;20692;-66
2021/09/08 09:50:37;;;;;;;14.68;6.68;;;18.80;75.00;;;;;;5074636;28;20093;-68
2021/09/08 09:53:04;;;;;;;15.15;7.15;;;18.80;75.20;;;;;;5111140;28;20042;-70
2021/09/08 09:55:32;;;;;;;10.45;6.13;;;18.80;75.10;;;;;;5106757;28;20490;-63
2021/09/08 09:58:06;;;;;;;12.32;6.32;;;18.80;75.20;;;;;;5106031;28;20045;-65
2021/09/08 10:00:48;;;;;;;15.63;7.43;;;18.70;75.40;;;;;;5110982;28;20028;-69
2021/09/08 10:03:16;;;;;;;;;;;18.70;75.30;;;;;;5091974;28;20028;-66
2021/09/08 10:05:43;;;;;;;16.98;6.30;;;18.70;75.40;;;;;;5108045;28;19903;-67
2021/09/08 10:08:12;;;;;;;16.15;6.70;;;18.70;75.60;;;;;;5103255;28;20246;-65
2021/09/08 10:10:41;;;;;;;10.60;6.50;;;18.70;75.50;;;;;;5111306;28;20035;-68
2021/09/08 10:13:19;;;;;;;14.27;6.35;;;18.70;75.70;;;;;;5110250;28;20027;-61
2021/09/08 10:15:59;;;;;;;21.35;7.78;;;18.70;75.40;;;;;;5110788;28;20027;-62
2021/09/08 10:18:29;;;;;;;16.55;5.95;;;18.70;75.50;;;;;;5083961;28;20482;-66
2021/09/08 10:21:09;;;;;;;13.48;6.22;;;18.60;75.50;;;;;;5116511;28;20016;-69
2021/09/08 10:23:43;;;;;;;14.55;5.90;;;18.60;75.60;;;;;;5094968;28;20032;-64
2021/09/08 10:26:13;;;;;;;12.90;6.68;;;18.60;75.60;;;;;;5114308;28;20043;-65
2021/09/08 10:28:45;;;;;;;12.43;6.22;;;18.60;75.50;;;;;;5090217;28;20027;-68
2021/09/08 10:31:14;;;;;;;10.55;5.97;;;18.60;75.60;;;;;;5115133;28;20027;-60
2021/09/08 10:33:43;;;;;;;12.32;6.13;;;18.60;75.50;;;;;;5095710;28;20050;-65
2021/09/08 10:36:12;;;;;;;10.60;5.68;;;18.60;75.60;;;;;;5096988;28;20020;-62
2021/09/08 10:38:40;;;;;;;13.20;6.30;;;18.60;75.60;;;;;;5096942;28;20915;-69
2021/09/08 10:41:09;;;;;;;12.30;6.25;;;18.60;75.70;;;;;;5105226;28;20050;-67
2021/09/08 10:43:38;;;;;;;18.02;7.03;;;18.60;75.70;;;;;;5099173;28;20032;-70
2021/09/08 10:46:08;;;;;;;12.13;6.28;;;18.60;76.00;;;;;;5103528;28;20024;-70
2021/09/08 10:48:39;;;;;;;14.60;5.50;;;18.60;75.70;;;;;;5104688;28;20626;-71
2021/09/08 10:51:32;;;;;;;12.30;5.53;;;18.60;76.20;;;;;;5114818;28;20430;-66
2021/09/08 10:54:05;;;;;;;11.27;5.65;;;18.60;75.80;;;;;;5100350;28;20202;-67
2021/09/08 10:56:48;;;;;;;12.00;5.78;;;18.50;75.90;;;;;;5114078;28;20106;-63
2021/09/08 10:59:15;;;;;;;16.50;6.15;;;18.60;75.90;;;;;;5085003;28;20023;-68
2021/09/08 11:01:42;;;;;;;13.80;6.20;;;18.50;76.10;;;;;;5112543;28;20023;-66
2021/09/08 11:04:17;;;;;;;13.48;5.75;;;18.50;75.90;;;;;;5112077;28;20048;-68
2021/09/08 11:06:49;;;;;;;13.30;5.68;;;18.50;76.10;;;;;;5109307;28;20020;-62
2021/09/08 11:09:20;;;;;;;11.50;5.55;;;18.50;76.00;;;;;;5104302;28;20043;-66
2021/09/08 11:11:56;;;;;;;12.18;5.30;;;18.50;75.90;;;;;;5113650;28;20118;-65
2021/09/08 11:14:50;;;;;;;18.30;6.00;;;18.50;75.90;;;;;;5088530;28;20385;-73
2021/09/08 11:17:26;;;;;;;14.40;6.20;;;18.40;76.60;;;;;;5109851;28;20028;-70
2021/09/08 11:19:55;;;;;;;12.43;5.68;;;18.40;76.50;;;;;;5102626;28;20031;-63
2021/09/08 11:22:23;;;;;;;11.50;4.93;;;18.40;76.10;;;;;;5109758;28;20644;-68
2021/09/08 11:25:11;;;;;;;11.82;5.47;;;18.40;75.90;;;;;;5107301;28;20076;-67
2021/09/08 11:27:42;;;;;;;12.95;5.55;;;18.40;75.90;;;;;;5088924;28;20367;-65
2021/09/08 11:30:11;;;;;;;13.85;5.40;;;18.50;76.20;;;;;;5102037;28;20127;-66
2021/09/08 11:33:00;;;;;;;9.80;5.20;;;18.40;76.00;;;;;;5104649;28;20099;-64
2021/09/08 11:35:47;;;;;;;11.77;4.68;;;18.40;76.10;;;;;;5079726;28;20023;-66
2021/09/08 11:38:17;;;;;;;11.90;4.72;;;18.40;76.10;;;;;;5102276;28;20042;-62
2021/09/08 11:40:52;;;;;;;11.02;4.93;;;18.30;75.90;;;;;;5108470;28;20031;-66
2021/09/08 11:43:37;;;;;;;9.05;4.85;;;18.40;76.10;;;;;;5109336;28;20109;-72
2021/09/08 11:46:17;;;;;;;13.90;5.00;;;18.40;76.00;;;;;;5104607;28;20087;-71
2021/09/08 11:48:48;;;;;;;11.05;5.30;;;18.40;76.10;;;;;;5080621;28;20073;-68
2021/09/08 11:51:24;;;;;;;11.50;5.10;;;18.40;76.10;;;;;;5105996;28;20546;-69
2021/09/08 11:53:53;;;;;;;13.57;4.85;;;18.30;76.20;;;;;;5108299;28;20092;-63
2021/09/08 11:56:28;;;;;;;9.95;4.70;;;18.30;76.60;;;;;;5105935;28;20051;-64
2021/09/08 11:59:00;;;;;;;9.27;4.40;;;18.30;76.00;;;;;;5098993;28;20397;-63
2021/09/08 12:01:40;;;;;;;12.30;5.50;;;18.30;76.10;;;;;;5108752;28;20032;-64
2021/09/08 12:04:11;;;;;;;9.07;4.30;;;18.30;75.90;;;;;;5068591;28;20023;-67
2021/09/08 12:07:03;;;;;;;12.50;5.22;;;18.30;76.20;;;;;;5103228;28;20117;-62
2021/09/08 12:09:31;;;;;;;12.38;4.57;;;18.30;76.00;;;;;;5095377;28;20059;-67
2021/09/08 12:12:06;;;;;;;13.60;5.10;;;18.30;76.00;;;;;;5104870;28;20039;-63
2021/09/08 12:14:37;;;;;;;11.80;4.90;;;18.30;76.20;;;;;;5086254;28;20110;-66
2021/09/08 12:17:12;;;;;;;11.75;4.65;;;18.20;76.20;;;;;;5086782;28;20024;-65
2021/09/08 12:19:43;;;;;;;9.45;4.55;;;18.30;76.20;;;;;;5102703;28;20023;-64
2021/09/08 12:22:15;;;;;;;9.52;4.60;;;18.20;76.00;;;;;;5092182;28;20462;-67
2021/09/08 12:24:52;;;;;;;14.25;6.20;;;18.20;75.90;;;;;;5093111;28;20482;-68
2021/09/08 12:27:25;;;;;;;10.02;4.57;;;18.20;76.10;;;;;;5099227;28;20031;-65
2021/09/08 12:29:59;;;;;;;10.32;4.03;;;18.20;76.20;;;;;;5108072;28;20062;-67
2021/09/08 12:32:59;;;;;;;13.55;5.38;;;18.20;76.30;;;;;;5108572;28;20100;-65
2021/09/08 12:35:49;;;;;;;11.82;4.13;;;18.20;76.50;;;;;;5094050;28;20120;-63
2021/09/08 12:38:30;;;;;;;11.93;4.95;;;18.10;76.70;;;;;;5072480;28;20485;-65
2021/09/08 12:41:16;;;;;;;9.88;4.82;;;18.10;76.50;;;;;;5106808;28;20043;-73
2021/09/08 12:43:48;;;;;;;7.47;4.43;;;18.10;76.60;;;;;;5067239;28;20033;-66
2021/09/08 12:46:17;;;;;;;8.77;3.70;;;18.10;76.60;;;;;;5056797;28;20020;-65
2021/09/08 12:48:45;;;;;;;7.97;3.78;;;18.10;76.60;;;;;;5067052;28;20020;-72
2021/09/08 12:51:13;;;;;;;9.90;4.72;;;18.00;76.90;;;;;;5067343;28;20036;-64
2021/09/08 12:53:41;;;;;;;10.68;4.47;;;18.00;76.70;;;;;;5067059;28;20032;-65
2021/09/08 12:56:12;;;;;;;8.98;4.25;;;18.10;76.60;;;;;;5057943;28;20025;-62